Terminal Aerodrome Forecast
Issued by NWS

Home | Current Version | Previous Version | Text Only | Print | Product List | Glossary Off
Versions: 1 2 3 4 5 6 7 8 9 10 11 12 13 14 15 16 17 18 19

000
FTUS43 KBIS 271100
TAFDIK
TAF
KDIK 271120Z 2712/2812 01014KT P6SM SKC
     FM271600 03016G22KT P6SM SCT080
     FM280200 02016G22KT P6SM SCT035 BKN080
     FM280900 02016KT P6SM BKN025 OVC030=

USA.gov is the U.S. government's official web portal to all federal, state and local government web resources and services.